Terminal Aerodrome Forecast
Issued by NWS Quad Cities IA IL

Home | Current Version | Previous Version | Text Only | Print | Product List | Glossary On
Versions: 1 2 3 4 5 6 7 8 9 10 11 12 13 14 15 16 17 18 19 20
000
FTUS43 KDVN 281100
TAFMLI
TAF
KMLI 281134Z 2812/2912 10007KT P6SM BKN035
     FM281400 11006KT 4SM TSRA BR OVC028CB
     FM281600 12007KT 5SM -RA BR SCT035 OVC040
     FM281800 12005KT P6SM BKN040 PROB30 2821/2824 3SM TSRA BKN020CB
      OVC030
     FM290400 12005KT 5SM BR BKN050=

USA.gov is the U.S. government's official web portal to all federal, state and local government web resources and services.